sensor_id;sensor_type;location;lat;lon;timestamp;pressure;altitude;pressure_sealevel;temperature;humidity
46506;BME280;32220;49.808;9.968;2024-02-23T08:35:23;97114.38;;;7.14;93.17
46506;BME280;32220;49.808;9.968;2024-02-23T08:37:51;97133.44;;;7.74;88.41
46506;BME280;32220;49.808;9.968;2024-02-23T08:40:18;97135.56;;;8.13;80.08
46506;BME280;32220;49.808;9.968;2024-02-23T08:42:46;97148.84;;;8.66;76.88
46506;BME280;32220;49.808;9.968;2024-02-23T08:45:17;97176.25;;;9.07;73.44
46506;BME280;32220;49.808;9.968;2024-02-23T08:47:58;97191.88;;;9.30;68.24
46506;BME280;32220;49.808;9.968;2024-02-23T08:50:27;97178.38;;;9.54;68.48
46506;BME280;32220;49.808;9.968;2024-02-23T08:52:55;97190.03;;;9.72;66.58
46506;BME280;32220;49.808;9.968;2024-02-23T08:55:23;97180.50;;;9.91;66.59
46506;BME280;32220;49.808;9.968;2024-02-23T08:57:51;97178.47;;;10.04;66.46
46506;BME280;32220;49.808;9.968;2024-02-23T09:00:18;97191.84;;;10.33;66.82
46506;BME280;32220;49.808;9.968;2024-02-23T09:02:46;97203.59;;;10.50;64.24
46506;BME280;32220;49.808;9.968;2024-02-23T09:05:14;97207.34;;;10.47;62.16
46506;BME280;32220;49.808;9.968;2024-02-23T09:07:43;97191.28;;;10.39;62.14
46506;BME280;32220;49.808;9.968;2024-02-23T09:10:11;97225.38;;;10.63;61.32
46506;BME280;32220;49.808;9.968;2024-02-23T09:12:39;97221.19;;;10.70;61.12
46506;BME280;32220;49.808;9.968;2024-02-23T09:15:07;97187.72;;;10.50;60.44
46506;BME280;32220;49.808;9.968;2024-02-23T09:17:34;97238.22;;;10.96;59.08
46506;BME280;32220;49.808;9.968;2024-02-23T09:20:02;97227.63;;;11.15;59.14
46506;BME280;32220;49.808;9.968;2024-02-23T09:22:30;97237.97;;;11.28;56.87
46506;BME280;32220;49.808;9.968;2024-02-23T09:24:59;97214.56;;;11.24;56.99
46506;BME280;32220;49.808;9.968;2024-02-23T09:27:27;97241.72;;;11.45;55.18
46506;BME280;32220;49.808;9.968;2024-02-23T09:29:54;97222.19;;;11.56;55.05
46506;BME280;32220;49.808;9.968;2024-02-23T09:32:22;97232.91;;;11.73;54.52
46506;BME280;32220;49.808;9.968;2024-02-23T09:34:49;97243.25;;;11.76;54.81
46506;BME280;32220;49.808;9.968;2024-02-23T09:37:17;97229.31;;;11.45;53.65
46506;BME280;32220;49.808;9.968;2024-02-23T09:39:45;97228.03;;;11.40;53.78
46506;BME280;32220;49.808;9.968;2024-02-23T09:42:14;97242.44;;;11.47;53.77
46506;BME280;32220;49.808;9.968;2024-02-23T09:44:44;97225.13;;;11.33;53.83
46506;BME280;32220;49.808;9.968;2024-02-23T09:47:13;97232.09;;;11.44;54.56
46506;BME280;32220;49.808;9.968;2024-02-23T09:49:41;97249.13;;;11.32;52.63
46506;BME280;32220;49.808;9.968;2024-02-23T09:52:10;97267.28;;;11.36;53.13
46506;BME280;32220;49.808;9.968;2024-02-23T09:54:38;97257.50;;;11.37;54.52
46506;BME280;32220;49.808;9.968;2024-02-23T09:57:08;97231.53;;;11.40;55.07
46506;BME280;32220;49.808;9.968;2024-02-23T09:59:37;97254.69;;;11.67;55.05
46506;BME280;32220;49.808;9.968;2024-02-23T10:02:07;97264.16;;;11.70;53.44
46506;BME280;32220;49.808;9.968;2024-02-23T10:04:39;97254.69;;;11.67;52.85
46506;BME280;32220;49.808;9.968;2024-02-23T10:07:41;97270.03;;;11.73;53.50
46506;BME280;32220;49.808;9.968;2024-02-23T10:10:49;97266.94;;;11.87;52.82
46506;BME280;32220;49.808;9.968;2024-02-23T10:13:40;97273.78;;;11.90;52.36
46506;BME280;32220;49.808;9.968;2024-02-23T10:16:32;97289.28;;;11.95;51.74
46506;BME280;32220;49.808;9.968;2024-02-23T10:19:00;97234.66;;;12.02;52.23
46506;BME280;32220;49.808;9.968;2024-02-23T10:21:52;97268.94;;;12.87;51.91
46506;BME280;32220;49.808;9.968;2024-02-23T10:24:20;97276.81;;;12.79;50.66
46506;BME280;32220;49.808;9.968;2024-02-23T10:26:48;97294.22;;;12.91;50.09
46506;BME280;32220;49.808;9.968;2024-02-23T10:29:15;97286.88;;;12.85;49.58
46506;BME280;32220;49.808;9.968;2024-02-23T10:31:46;97278.69;;;12.69;50.86
46506;BME280;32220;49.808;9.968;2024-02-23T10:34:18;97285.69;;;12.70;49.67
46506;BME280;32220;49.808;9.968;2024-02-23T10:36:48;97270.81;;;12.77;50.29
46506;BME280;32220;49.808;9.968;2024-02-23T10:39:17;97291.66;;;12.99;49.64
46506;BME280;32220;49.808;9.968;2024-02-23T10:42:02;97273.75;;;13.01;48.60
46506;BME280;32220;49.808;9.968;2024-02-23T10:44:31;97298.13;;;13.42;48.45
46506;BME280;32220;49.808;9.968;2024-02-23T10:47:00;97316.88;;;13.93;46.94
46506;BME280;32220;49.808;9.968;2024-02-23T10:49:30;97325.47;;;14.31;46.71
46506;BME280;32220;49.808;9.968;2024-02-23T10:51:59;97311.28;;;14.48;45.42
46506;BME280;32220;49.808;9.968;2024-02-23T10:54:29;97334.31;;;14.57;45.19
46506;BME280;32220;49.808;9.968;2024-02-23T10:56:58;97318.81;;;14.35;45.56
46506;BME280;32220;49.808;9.968;2024-02-23T10:59:26;97303.88;;;13.90;45.28
46506;BME280;32220;49.808;9.968;2024-02-23T11:01:55;97312.00;;;13.89;46.39
46506;BME280;32220;49.808;9.968;2024-02-23T11:04:30;97333.59;;;14.03;46.29
46506;BME280;32220;49.808;9.968;2024-02-23T11:06:58;97335.41;;;14.03;45.52
46506;BME280;32220;49.808;9.968;2024-02-23T11:09:31;97322.94;;;13.86;45.65
46506;BME280;32220;49.808;9.968;2024-02-23T11:12:04;97333.97;;;13.91;45.48
46506;BME280;32220;49.808;9.968;2024-02-23T11:14:34;97312.09;;;13.79;45.19
46506;BME280;32220;49.808;9.968;2024-02-23T11:17:03;97310.81;;;13.83;45.23
46506;BME280;32220;49.808;9.968;2024-02-23T11:19:36;97313.47;;;13.83;45.71
46506;BME280;32220;49.808;9.968;2024-02-23T11:22:04;97319.56;;;13.58;44.91
46506;BME280;32220;49.808;9.968;2024-02-23T11:24:32;97302.06;;;13.38;45.48
46506;BME280;32220;49.808;9.968;2024-02-23T11:27:00;97283.13;;;13.23;46.19
46506;BME280;32220;49.808;9.968;2024-02-23T11:29:34;97282.91;;;13.16;46.19
46506;BME280;32220;49.808;9.968;2024-02-23T11:32:14;97293.31;;;13.27;46.48
46506;BME280;32220;49.808;9.968;2024-02-23T11:34:57;97275.00;;;13.24;46.68
46506;BME280;32220;49.808;9.968;2024-02-23T11:37:28;97297.94;;;13.25;45.62
46506;BME280;32220;49.808;9.968;2024-02-23T11:39:56;97267.06;;;12.97;45.66
46506;BME280;32220;49.808;9.968;2024-02-23T11:42:26;97273.44;;;13.04;46.27
46506;BME280;32220;49.808;9.968;2024-02-23T11:44:58;97272.19;;;13.08;46.30
46506;BME280;32220;49.808;9.968;2024-02-23T11:47:26;97261.16;;;13.03;46.00
46506;BME280;32220;49.808;9.968;2024-02-23T11:49:53;97268.50;;;12.91;45.31
46506;BME280;32220;49.808;9.968;2024-02-23T11:52:23;97275.53;;;12.83;45.34
46506;BME280;32220;49.808;9.968;2024-02-23T11:54:51;97263.78;;;12.58;45.11
46506;BME280;32220;49.808;9.968;2024-02-23T11:57:19;97266.94;;;12.71;46.43
46506;BME280;32220;49.808;9.968;2024-02-23T11:59:47;97255.47;;;12.71;46.33
46506;BME280;32220;49.808;9.968;2024-02-23T12:02:14;97254.50;;;12.72;46.14
46506;BME280;32220;49.808;9.968;2024-02-23T12:04:42;97225.44;;;12.43;45.82
46506;BME280;32220;49.808;9.968;2024-02-23T12:07:09;97252.03;;;12.61;46.45
46506;BME280;32220;49.808;9.968;2024-02-23T12:09:38;97256.94;;;12.55;45.92
46506;BME280;32220;49.808;9.968;2024-02-23T12:12:07;97249.56;;;12.49;46.32
46506;BME280;32220;49.808;9.968;2024-02-23T12:14:35;97251.38;;;12.49;46.87
46506;BME280;32220;49.808;9.968;2024-02-23T12:17:03;97228.00;;;12.35;46.36
46506;BME280;32220;49.808;9.968;2024-02-23T12:19:32;97243.59;;;12.47;46.57
46506;BME280;32220;49.808;9.968;2024-02-23T12:22:00;97242.34;;;12.42;46.64
46506;BME280;32220;49.808;9.968;2024-02-23T12:24:29;97222.03;;;12.23;47.06
46506;BME280;32220;49.808;9.968;2024-02-23T12:26:58;97201.28;;;12.09;47.22
46506;BME280;32220;49.808;9.968;2024-02-23T12:29:26;97237.50;;;12.28;46.68
46506;BME280;32220;49.808;9.968;2024-02-23T12:32:02;97206.69;;;12.17;46.84
46506;BME280;32220;49.808;9.968;2024-02-23T12:34:30;97233.25;;;12.44;46.59
46506;BME280;32220;49.808;9.968;2024-02-23T12:36:58;97234.31;;;12.51;46.44
46506;BME280;32220;49.808;9.968;2024-02-23T12:39:25;97260.53;;;12.64;46.51
46506;BME280;32220;49.808;9.968;2024-02-23T12:41:55;97261.22;;;12.66;46.65
46506;BME280;32220;49.808;9.968;2024-02-23T12:44:27;97256.34;;;12.62;46.52
46506;BME280;32220;49.808;9.968;2024-02-23T12:46:55;97239.63;;;12.51;46.71
46506;BME280;32220;49.808;9.968;2024-02-23T12:49:22;97237.09;;;12.59;47.45
46506;BME280;32220;49.808;9.968;2024-02-23T12:51:50;97223.47;;;12.45;46.44
46506;BME280;32220;49.808;9.968;2024-02-23T12:54:20;97205.91;;;12.34;46.44
46506;BME280;32220;49.808;9.968;2024-02-23T12:56:48;97254.50;;;12.72;46.38
46506;BME280;32220;49.808;9.968;2024-02-23T12:59:16;97238.22;;;13.02;46.00
46506;BME280;32220;49.808;9.968;2024-02-23T13:02:05;97236.72;;;13.53;46.75
46506;BME280;32220;49.808;9.968;2024-02-23T13:05:25;97203.00;;;13.79;45.98
46506;BME280;32220;49.808;9.968;2024-02-23T13:07:53;97239.31;;;14.14;45.57
46506;BME280;32220;49.808;9.968;2024-02-23T13:10:20;97244.69;;;14.22;44.87
46506;BME280;32220;49.808;9.968;2024-02-23T13:12:48;97239.47;;;14.13;44.42
46506;BME280;32220;49.808;9.968;2024-02-23T13:15:16;97248.59;;;14.10;44.49
46506;BME280;32220;49.808;9.968;2024-02-23T13:18:00;97256.69;;;14.00;44.16
46506;BME280;32220;49.808;9.968;2024-02-23T13:20:29;97256.19;;;13.97;44.10
46506;BME280;32220;49.808;9.968;2024-02-23T13:22:56;97206.78;;;13.69;44.92
46506;BME280;32220;49.808;9.968;2024-02-23T13:25:27;97233.84;;;14.16;44.31
46506;BME280;32220;49.808;9.968;2024-02-23T13:27:57;97222.94;;;14.35;44.30
46506;BME280;32220;49.808;9.968;2024-02-23T13:30:41;97246.81;;;14.79;43.76
46506;BME280;32220;49.808;9.968;2024-02-23T13:33:11;97241.88;;;14.92;44.20
46506;BME280;32220;49.808;9.968;2024-02-23T13:35:38;97228.03;;;14.96;43.59
46506;BME280;32220;49.808;9.968;2024-02-23T13:38:06;97241.03;;;14.83;43.10
46506;BME280;32220;49.808;9.968;2024-02-23T13:40:35;97260.13;;;14.70;42.98
46506;BME280;32220;49.808;9.968;2024-02-23T13:43:23;97240.41;;;14.29;43.50
46506;BME280;32220;49.808;9.968;2024-02-23T13:45:52;97243.81;;;14.14;44.45
46506;BME280;32220;49.808;9.968;2024-02-23T13:48:40;97231.34;;;13.88;43.60
46506;BME280;32220;49.808;9.968;2024-02-23T13:51:09;97234.06;;;13.71;44.34
46506;BME280;32220;49.808;9.968;2024-02-23T13:53:36;97246.03;;;13.75;45.43
46506;BME280;32220;49.808;9.968;2024-02-23T13:56:04;97234.75;;;13.55;45.24
46506;BME280;32220;49.808;9.968;2024-02-23T13:58:31;97212.16;;;13.33;45.75
46506;BME280;32220;49.808;9.968;2024-02-23T14:01:02;97200.91;;;13.21;46.16
46506;BME280;32220;49.808;9.968;2024-02-23T14:03:30;97217.44;;;13.15;45.79
46506;BME280;32220;49.808;9.968;2024-02-23T14:05:59;97224.44;;;13.16;46.40
46506;BME280;32220;49.808;9.968;2024-02-23T14:08:27;97218.81;;;13.19;46.23
46506;BME280;32220;49.808;9.968;2024-02-23T14:10:55;97212.59;;;13.28;45.43
46506;BME280;32220;49.808;9.968;2024-02-23T14:13:22;97222.63;;;13.35;44.88
46506;BME280;32220;49.808;9.968;2024-02-23T14:15:50;97209.69;;;13.40;45.33
46506;BME280;32220;49.808;9.968;2024-02-23T14:18:18;97191.56;;;13.35;44.64
46506;BME280;32220;49.808;9.968;2024-02-23T14:20:45;97203.13;;;13.52;44.94
46506;BME280;32220;49.808;9.968;2024-02-23T14:23:14;97209.84;;;13.82;45.41
46506;BME280;32220;49.808;9.968;2024-02-23T14:25:42;97180.75;;;13.80;45.35
46506;BME280;32220;49.808;9.968;2024-02-23T14:28:10;97184.13;;;13.90;45.09
46506;BME280;32220;49.808;9.968;2024-02-23T14:30:40;97174.78;;;13.86;44.55
46506;BME280;32220;49.808;9.968;2024-02-23T14:33:09;97170.78;;;14.16;44.86
46506;BME280;32220;49.808;9.968;2024-02-23T14:35:51;97168.88;;;14.77;43.80
46506;BME280;32220;49.808;9.968;2024-02-23T14:38:21;97146.72;;;14.76;43.64
46506;BME280;32220;49.808;9.968;2024-02-23T14:40:51;97192.84;;;14.85;43.04
46506;BME280;32220;49.808;9.968;2024-02-23T14:43:20;97184.69;;;14.86;43.68
46506;BME280;32220;49.808;9.968;2024-02-23T14:45:49;97182.88;;;14.79;43.13
46506;BME280;32220;49.808;9.968;2024-02-23T14:48:30;97123.44;;;14.36;43.95
46506;BME280;32220;49.808;9.968;2024-02-23T14:50:58;97169.81;;;14.59;44.61
46506;BME280;32220;49.808;9.968;2024-02-23T14:53:43;97183.78;;;14.53;44.13
46506;BME280;32220;49.808;9.968;2024-02-23T14:56:11;97163.94;;;14.14;43.91
46506;BME280;32220;49.808;9.968;2024-02-23T14:58:39;97175.84;;;13.93;44.32
46506;BME280;32220;49.808;9.968;2024-02-23T15:01:13;97149.19;;;13.59;44.74
46506;BME280;32220;49.808;9.968;2024-02-23T15:03:41;97193.66;;;13.75;45.05
46506;BME280;32220;49.808;9.968;2024-02-23T15:06:09;97186.47;;;13.68;45.07
46506;BME280;32220;49.808;9.968;2024-02-23T15:08:39;97189.59;;;13.63;45.30
46506;BME280;32220;49.808;9.968;2024-02-23T15:11:08;97189.50;;;13.47;45.30
46506;BME280;32220;49.808;9.968;2024-02-23T15:13:35;97202.09;;;13.45;45.49
46506;BME280;32220;49.808;9.968;2024-02-23T15:16:04;97176.50;;;13.26;45.60
46506;BME280;32220;49.808;9.968;2024-02-23T15:18:31;97173.66;;;13.19;45.74
46506;BME280;32220;49.808;9.968;2024-02-23T15:21:03;97147.72;;;12.86;45.94
46506;BME280;32220;49.808;9.968;2024-02-23T15:23:30;97188.41;;;13.04;46.24
46506;BME280;32220;49.808;9.968;2024-02-23T15:25:58;97154.69;;;12.87;46.55
46506;BME280;32220;49.808;9.968;2024-02-23T15:28:27;97177.50;;;13.07;46.62
46506;BME280;32220;49.808;9.968;2024-02-23T15:30:54;97177.19;;;13.10;46.57
46506;BME280;32220;49.808;9.968;2024-02-23T15:33:22;97167.25;;;12.94;46.33
46506;BME280;32220;49.808;9.968;2024-02-23T15:35:50;97159.16;;;12.86;47.12
46506;BME280;32220;49.808;9.968;2024-02-23T15:38:18;97132.84;;;12.57;47.15
46506;BME280;32220;49.808;9.968;2024-02-23T15:40:45;97127.44;;;12.49;47.58
46506;BME280;32220;49.808;9.968;2024-02-23T15:43:13;97144.25;;;12.40;47.41
46506;BME280;32220;49.808;9.968;2024-02-23T15:45:56;97143.34;;;12.32;47.99
46506;BME280;32220;49.808;9.968;2024-02-23T15:48:26;97161.31;;;12.38;48.03
46506;BME280;32220;49.808;9.968;2024-02-23T15:50:54;97129.25;;;12.04;48.07
46506;BME280;32220;49.808;9.968;2024-02-23T15:53:22;97112.59;;;11.84;48.30
46506;BME280;32220;49.808;9.968;2024-02-23T15:55:51;97133.81;;;11.84;48.75
46506;BME280;32220;49.808;9.968;2024-02-23T15:58:34;97139.41;;;11.71;48.78
46506;BME280;32220;49.808;9.968;2024-02-23T16:01:03;97121.63;;;11.44;49.09
46506;BME280;32220;49.808;9.968;2024-02-23T16:03:31;97073.75;;;10.99;49.85
46506;BME280;32220;49.808;9.968;2024-02-23T16:05:59;97142.59;;;11.19;50.45
46506;BME280;32220;49.808;9.968;2024-02-23T16:08:39;97137.72;;;11.04;50.62
46506;BME280;32220;49.808;9.968;2024-02-23T16:11:08;97140.91;;;10.89;50.77
46506;BME280;32220;49.808;9.968;2024-02-23T16:13:37;97086.72;;;10.44;51.80
46506;BME280;32220;49.808;9.968;2024-02-23T16:16:08;97118.78;;;10.61;51.80
46506;BME280;32220;49.808;9.968;2024-02-23T16:18:36;97125.59;;;10.54;52.57
46506;BME280;32220;49.808;9.968;2024-02-23T16:21:04;97131.56;;;10.46;52.52
46506;BME280;32220;49.808;9.968;2024-02-23T16:23:32;97124.16;;;10.30;52.88
46506;BME280;32220;49.808;9.968;2024-02-23T16:26:00;97116.78;;;10.24;53.32
46506;BME280;32220;49.808;9.968;2024-02-23T16:28:28;97126.66;;;10.22;53.46
46506;BME280;32220;49.808;9.968;2024-02-23T16:30:55;97110.44;;;10.06;53.51
46506;BME280;32220;49.808;9.968;2024-02-23T16:33:24;97097.31;;;9.95;53.89
46506;BME280;32220;49.808;9.968;2024-02-23T16:35:52;97111.81;;;10.00;54.29
46506;BME280;32220;49.808;9.968;2024-02-23T16:38:22;97083.75;;;9.79;54.62
46506;BME280;32220;49.808;9.968;2024-02-23T16:40:50;97094.75;;;9.74;54.52
46506;BME280;32220;49.808;9.968;2024-02-23T16:43:17;97101.53;;;9.67;55.02
46506;BME280;32220;49.808;9.968;2024-02-23T16:45:45;97100.97;;;9.63;55.31
46506;BME280;32220;49.808;9.968;2024-02-23T16:48:13;97084.31;;;9.42;56.02
46506;BME280;32220;49.808;9.968;2024-02-23T16:50:43;97096.31;;;9.46;56.35
46506;BME280;32220;49.808;9.968;2024-02-23T16:53:13;97049.03;;;9.13;56.58
46506;BME280;32220;49.808;9.968;2024-02-23T16:55:40;97100.25;;;9.31;56.57
46506;BME280;32220;49.808;9.968;2024-02-23T16:58:09;97090.03;;;9.17;56.88
46506;BME280;32220;49.808;9.968;2024-02-23T17:00:37;97076.84;;;8.96;57.45
46506;BME280;32220;49.808;9.968;2024-02-23T17:03:05;97082.13;;;8.96;57.55
46506;BME280;32220;49.808;9.968;2024-02-23T17:05:33;97086.94;;;8.91;57.61
46506;BME280;32220;49.808;9.968;2024-02-23T17:08:17;97097.13;;;8.95;57.54
46506;BME280;32220;49.808;9.968;2024-02-23T17:10:44;97088.44;;;8.84;57.50
46506;BME280;32220;49.808;9.968;2024-02-23T17:13:12;97086.16;;;8.79;57.67
46506;BME280;32220;49.808;9.968;2024-02-23T17:15:40;97094.50;;;8.75;57.86
46506;BME280;32220;49.808;9.968;2024-02-23T17:18:07;97112.44;;;8.81;58.45
46506;BME280;32220;49.808;9.968;2024-02-23T17:20:35;97095.81;;;8.69;58.49
46506;BME280;32220;49.808;9.968;2024-02-23T17:23:03;97088.16;;;8.66;58.42
46506;BME280;32220;49.808;9.968;2024-02-23T17:25:32;97070.44;;;8.57;58.53
46506;BME280;32220;49.808;9.968;2024-02-23T17:28:00;97078.84;;;8.62;58.81
46506;BME280;32220;49.808;9.968;2024-02-23T17:30:28;97099.16;;;8.71;58.63
46506;BME280;32220;49.808;9.968;2024-02-23T17:32:56;97074.81;;;8.47;58.92
46506;BME280;32220;49.808;9.968;2024-02-23T17:35:23;97115.53;;;8.65;59.41
46506;BME280;32220;49.808;9.968;2024-02-23T17:37:51;97087.81;;;8.39;59.24
46506;BME280;32220;49.808;9.968;2024-02-23T17:40:21;97122.53;;;8.44;59.21
46506;BME280;32220;49.808;9.968;2024-02-23T17:42:50;97135.53;;;8.36;59.89
46506;BME280;32220;49.808;9.968;2024-02-23T17:45:18;97146.53;;;8.41;60.03
46506;BME280;32220;49.808;9.968;2024-02-23T17:47:45;97126.91;;;8.22;59.87
46506;BME280;32220;49.808;9.968;2024-02-23T17:50:13;97143.44;;;8.24;59.72
46506;BME280;32220;49.808;9.968;2024-02-23T17:52:40;97119.03;;;8.00;60.50
46506;BME280;32220;49.808;9.968;2024-02-23T17:55:08;97128.84;;;8.09;60.92
46506;BME280;32220;49.808;9.968;2024-02-23T17:57:35;97127.41;;;8.05;61.00
46506;BME280;32220;49.808;9.968;2024-02-23T18:00:06;97116.16;;;7.92;61.53
46506;BME280;32220;49.808;9.968;2024-02-23T18:02:34;97127.91;;;7.99;61.51
46506;BME280;32220;49.808;9.968;2024-02-23T18:05:02;97122.88;;;7.96;61.34
46506;BME280;32220;49.808;9.968;2024-02-23T18:07:29;97111.63;;;7.83;61.33
46506;BME280;32220;49.808;9.968;2024-02-23T18:09:57;97135.72;;;7.89;61.29
46506;BME280;32220;49.808;9.968;2024-02-23T18:12:24;97114.88;;;7.75;62.11
46506;BME280;32220;49.808;9.968;2024-02-23T18:14:52;97131.28;;;7.79;62.94
46506;BME280;32220;49.808;9.968;2024-02-23T18:17:21;97125.75;;;7.82;63.25
46506;BME280;32220;49.808;9.968;2024-02-23T18:19:49;97063.63;;;7.46;63.90
46506;BME280;32220;49.808;9.968;2024-02-23T18:22:16;97132.25;;;7.78;63.31
46506;BME280;32220;49.808;9.968;2024-02-23T18:24:44;97132.47;;;7.75;63.73
46506;BME280;32220;49.808;9.968;2024-02-23T18:27:11;97113.31;;;7.62;63.87
46506;BME280;32220;49.808;9.968;2024-02-23T18:29:39;97132.09;;;7.68;64.74
46506;BME280;32220;49.808;9.968;2024-02-23T18:32:07;97144.44;;;7.68;64.97
46506;BME280;32220;49.808;9.968;2024-02-23T18:34:36;97129.72;;;7.65;65.43
46506;BME280;32220;49.808;9.968;2024-02-23T18:37:04;97122.28;;;7.59;65.18
46506;BME280;32220;49.808;9.968;2024-02-23T18:39:34;97109.00;;;7.49;64.49
46506;BME280;32220;49.808;9.968;2024-02-23T18:42:02;97126.72;;;7.58;64.62
46506;BME280;32220;49.808;9.968;2024-02-23T18:44:29;97106.16;;;7.41;65.11
46506;BME280;32220;49.808;9.968;2024-02-23T18:46:57;97123.13;;;7.48;64.92
46506;BME280;32220;49.808;9.968;2024-02-23T18:49:24;97129.13;;;7.39;65.20
46506;BME280;32220;49.808;9.968;2024-02-23T18:51:56;97131.47;;;7.31;65.17
46506;BME280;32220;49.808;9.968;2024-02-23T18:54:25;97130.19;;;7.26;65.03
46506;BME280;32220;49.808;9.968;2024-02-23T18:56:52;97113.75;;;7.11;65.68
46506;BME280;32220;49.808;9.968;2024-02-23T18:59:20;97114.47;;;7.02;65.52
46506;BME280;32220;49.808;9.968;2024-02-23T19:01:48;97122.09;;;7.05;66.70
46506;BME280;32220;49.808;9.968;2024-02-23T19:04:15;97099.59;;;6.90;66.73
46506;BME280;32220;49.808;9.968;2024-02-23T19:06:43;97108.81;;;6.95;67.12
46506;BME280;32220;49.808;9.968;2024-02-23T19:09:12;97123.03;;;6.93;66.85
46506;BME280;32220;49.808;9.968;2024-02-23T19:11:39;97124.34;;;6.87;66.75
46506;BME280;32220;49.808;9.968;2024-02-23T19:14:07;97109.84;;;6.81;67.94
46506;BME280;32220;49.808;9.968;2024-02-23T19:16:34;97106.75;;;6.76;67.30
46506;BME280;32220;49.808;9.968;2024-02-23T19:19:04;97099.56;;;6.67;67.13
46506;BME280;32220;49.808;9.968;2024-02-23T19:21:32;97104.94;;;6.66;67.99
46506;BME280;32220;49.808;9.968;2024-02-23T19:23:59;97079.75;;;6.51;68.08
46506;BME280;32220;49.808;9.968;2024-02-23T19:26:28;97098.53;;;6.57;68.14
46506;BME280;32220;49.808;9.968;2024-02-23T19:28:56;97040.91;;;6.19;68.20
46506;BME280;32220;49.808;9.968;2024-02-23T19:31:23;97069.53;;;6.35;69.28
46506;BME280;32220;49.808;9.968;2024-02-23T19:33:52;97083.19;;;6.40;68.61
46506;BME280;32220;49.808;9.968;2024-02-23T19:36:20;97080.78;;;6.37;70.16
46506;BME280;32220;49.808;9.968;2024-02-23T19:38:49;97055.84;;;6.19;70.00
46506;BME280;32220;49.808;9.968;2024-02-23T19:41:16;97022.53;;;5.95;69.99
46506;BME280;32220;49.808;9.968;2024-02-23T19:43:46;97077.38;;;6.24;71.26
46506;BME280;32220;49.808;9.968;2024-02-23T19:46:14;97075.91;;;6.20;70.97
46506;BME280;32220;49.808;9.968;2024-02-23T19:48:45;97085.94;;;6.15;70.75
46506;BME280;32220;49.808;9.968;2024-02-23T19:51:13;97091.63;;;6.08;71.65
46506;BME280;32220;49.808;9.968;2024-02-23T19:53:40;97104.28;;;6.03;70.87
46506;BME280;32220;49.808;9.968;2024-02-23T19:56:09;97099.44;;;5.97;71.54
46506;BME280;32220;49.808;9.968;2024-02-23T19:58:36;97096.34;;;5.92;72.00
46506;BME280;32220;49.808;9.968;2024-02-23T20:01:05;97087.72;;;5.77;71.83
46506;BME280;32220;49.808;9.968;2024-02-23T20:03:33;97100.19;;;5.87;73.02
46506;BME280;32220;49.808;9.968;2024-02-23T20:06:00;97088.31;;;5.81;73.73
46506;BME280;32220;49.808;9.968;2024-02-23T20:08:28;97098.63;;;5.84;73.58
46506;BME280;32220;49.808;9.968;2024-02-23T20:10:56;97082.06;;;5.71;72.94
46506;BME280;32220;49.808;9.968;2024-02-23T20:13:26;97104.31;;;5.78;73.07
46506;BME280;32220;49.808;9.968;2024-02-23T20:15:55;97082.50;;;5.65;73.12
46506;BME280;32220;49.808;9.968;2024-02-23T20:18:24;97106.63;;;5.70;72.64
46506;BME280;32220;49.808;9.968;2024-02-23T20:20:51;97086.91;;;5.64;74.95
46506;BME280;32220;49.808;9.968;2024-02-23T20:23:19;97085.44;;;5.60;74.52
46506;BME280;32220;49.808;9.968;2024-02-23T20:25:46;97080.44;;;5.45;73.88
46506;BME280;32220;49.808;9.968;2024-02-23T20:28:14;97105.31;;;5.52;74.52
46506;BME280;32220;49.808;9.968;2024-02-23T20:30:43;97113.59;;;5.46;73.39
46506;BME280;32220;49.808;9.968;2024-02-23T20:33:11;97109.22;;;5.33;73.21
46506;BME280;32220;49.808;9.968;2024-02-23T20:35:40;97111.63;;;5.36;73.33
46506;BME280;32220;49.808;9.968;2024-02-23T20:38:07;97109.44;;;5.30;73.39
46506;BME280;32220;49.808;9.968;2024-02-23T20:40:35;97103.38;;;5.17;73.42
46506;BME280;32220;49.808;9.968;2024-02-23T20:43:03;97060.13;;;4.85;74.19
46506;BME280;32220;49.808;9.968;2024-02-23T20:45:31;97114.91;;;5.15;73.92
46506;BME280;32220;49.808;9.968;2024-02-23T20:47:59;97108.91;;;5.13;74.51
46506;BME280;32220;49.808;9.968;2024-02-23T20:50:26;97107.34;;;5.10;75.02
46506;BME280;32220;49.808;9.968;2024-02-23T20:52:55;97088.13;;;4.97;75.09
46506;BME280;32220;49.808;9.968;2024-02-23T20:55:23;97102.63;;;5.02;76.67
46506;BME280;32220;49.808;9.968;2024-02-23T20:57:51;97081.84;;;4.87;76.36
46506;BME280;32220;49.808;9.968;2024-02-23T21:00:21;97100.41;;;4.96;76.80
46506;BME280;32220;49.808;9.968;2024-02-23T21:02:47;97108.38;;;4.95;76.87
46506;BME280;32220;49.808;9.968;2024-02-23T21:05:15;97080.06;;;4.87;80.32
46506;BME280;32220;49.808;9.968;2024-02-23T21:07:45;97088.38;;;4.94;81.01
46506;BME280;32220;49.808;9.968;2024-02-23T21:10:13;97063.69;;;4.84;81.54
46506;BME280;32220;49.808;9.968;2024-02-23T21:12:42;97075.44;;;4.91;81.11
46506;BME280;32220;49.808;9.968;2024-02-23T21:15:09;97080.50;;;4.94;80.56
46506;BME280;32220;49.808;9.968;2024-02-23T21:17:37;97089.72;;;4.99;80.24
46506;BME280;32220;49.808;9.968;2024-02-23T21:20:06;97095.41;;;5.06;80.00
46506;BME280;32220;49.808;9.968;2024-02-23T21:22:33;97078.59;;;4.96;79.89
46506;BME280;32220;49.808;9.968;2024-02-23T21:25:01;97091.00;;;5.07;79.73
46506;BME280;32220;49.808;9.968;2024-02-23T21:27:30;97097.03;;;5.07;79.72
46506;BME280;32220;49.808;9.968;2024-02-23T21:29:57;97093.47;;;5.08;79.55
46506;BME280;32220;49.808;9.968;2024-02-23T21:32:25;97095.41;;;5.06;79.89
46506;BME280;32220;49.808;9.968;2024-02-23T21:34:52;97100.84;;;5.03;79.60
46506;BME280;32220;49.808;9.968;2024-02-23T21:37:20;97104.41;;;5.02;79.46
46506;BME280;32220;49.808;9.968;2024-02-23T21:39:47;97097.47;;;5.01;80.70
46506;BME280;32220;49.808;9.968;2024-02-23T21:42:15;97099.38;;;4.99;80.03
46506;BME280;32220;49.808;9.968;2024-02-23T21:44:44;97102.19;;;4.96;79.59
